createdAt,value
2023-01-15T00:03:14.295Z,69.96
2023-01-15T00:08:16.600Z,69.55
2023-01-15T00:13:24.851Z,69.25
2023-01-15T00:18:26.584Z,68.98
2023-01-15T00:23:46.959Z,68.79
2023-01-15T00:28:49.011Z,68.52
2023-01-15T00:33:51.348Z,68.34
2023-01-15T00:38:53.326Z,68.16
2023-01-15T00:43:55.493Z,68.20
2023-01-15T00:48:57.182Z,67.90
2023-01-15T00:53:59.497Z,67.86
2023-01-15T00:59:03.286Z,67.49
2023-01-15T01:04:15.698Z,67.78
2023-01-15T01:09:17.407Z,67.73
2023-01-15T01:14:19.145Z,67.66
2023-01-15T01:19:23.191Z,67.71
2023-01-15T01:24:24.948Z,67.72
2023-01-15T01:29:26.662Z,67.88
2023-01-15T01:34:28.476Z,67.93
2023-01-15T01:39:30.141Z,68.18
2023-01-15T01:44:34.903Z,68.19
2023-01-15T01:49:40.237Z,68.20
2023-01-15T01:54:46.378Z,68.42
2023-01-15T01:59:49.581Z,68.74
2023-01-15T02:04:52.420Z,68.62
2023-01-15T02:09:54.114Z,68.61
2023-01-15T02:15:22.391Z,68.63
2023-01-15T02:20:41.396Z,68.39
2023-01-15T02:26:20.420Z,68.08
2023-01-15T02:31:42.287Z,67.92
2023-01-15T02:36:50.510Z,67.75
2023-01-15T02:42:03.939Z,67.31
2023-01-15T02:47:11.927Z,67.06
2023-01-15T02:52:20.262Z,66.58
2023-01-15T02:57:25.939Z,65.76
2023-01-15T03:02:36.003Z,65.09
2023-01-15T03:07:48.161Z,64.02
2023-01-15T03:13:02.980Z,63.39
2023-01-15T03:18:15.308Z,62.87
2023-01-15T03:23:22.223Z,62.65
2023-01-15T03:28:31.562Z,62.40
2023-01-15T03:33:35.133Z,62.46
2023-01-15T03:38:39.079Z,63.42
2023-01-15T03:44:18.173Z,64.19
2023-01-15T03:49:42.299Z,64.49
2023-01-15T03:55:05.550Z,64.98
2023-01-15T04:00:26.886Z,65.51
2023-01-15T04:05:32.272Z,66.37
2023-01-15T04:10:34.367Z,66.70
2023-01-15T04:15:38.262Z,66.93
2023-01-15T04:20:40.481Z,67.25
2023-01-15T04:25:43.286Z,67.36
2023-01-15T04:30:46.444Z,67.80
2023-01-15T04:35:48.375Z,67.68
2023-01-15T04:41:08.645Z,67.16
2023-01-15T04:46:10.579Z,66.93
2023-01-15T04:51:12.923Z,67.00
2023-01-15T04:56:14.620Z,66.92
2023-01-15T05:01:17.870Z,67.06
2023-01-15T05:06:19.814Z,66.56
2023-01-15T05:11:21.693Z,67.04
2023-01-15T05:16:26.481Z,66.81
2023-01-15T05:21:31.934Z,67.20
2023-01-15T05:26:35.081Z,67.55
2023-01-15T05:31:37.032Z,68.03
2023-01-15T05:36:39.096Z,67.84
2023-01-15T05:41:50.347Z,68.18
2023-01-15T05:46:55.151Z,68.42
2023-01-15T05:51:58.603Z,68.17
2023-01-15T05:57:01.654Z,68.00
2023-01-15T06:02:03.432Z,68.40
2023-01-15T06:07:05.433Z,68.56
2023-01-15T06:12:07.322Z,68.15
2023-01-15T06:17:09.020Z,68.15
2023-01-15T06:22:11.120Z,68.56
2023-01-15T06:27:13.006Z,68.20
2023-01-15T06:32:15.240Z,67.93
2023-01-15T06:37:17.250Z,67.91
2023-01-15T06:42:37.879Z,68.11
2023-01-15T06:47:39.752Z,67.82
2023-01-15T06:52:41.535Z,67.86
2023-01-15T06:57:43.239Z,67.62
2023-01-15T07:02:44.952Z,67.33
2023-01-15T07:07:46.659Z,67.30
2023-01-15T07:12:48.331Z,66.96
2023-01-15T07:17:54.671Z,66.31
2023-01-15T07:22:56.500Z,66.03
2023-01-15T07:27:58.169Z,66.08
2023-01-15T07:32:59.970Z,65.85
2023-01-15T07:38:01.643Z,65.44
2023-01-15T07:43:22.005Z,65.12
2023-01-15T07:48:42.672Z,65.07
2023-01-15T07:53:44.394Z,64.70
2023-01-15T07:58:50.148Z,64.26
2023-01-15T08:03:51.870Z,64.10
2023-01-15T08:08:53.683Z,63.69
2023-01-15T08:14:14.022Z,63.43
2023-01-15T08:19:15.998Z,63.43
2023-01-15T08:24:18.039Z,63.23
2023-01-15T08:29:20.466Z,62.47
2023-01-15T08:34:22.409Z,63.13
2023-01-15T08:39:24.129Z,62.42
2023-01-15T08:44:26.196Z,62.22
2023-01-15T08:49:28.210Z,62.36
2023-01-15T08:54:30.199Z,62.05
2023-01-15T08:59:31.871Z,62.14
2023-01-15T09:04:33.604Z,62.21
2023-01-15T09:09:35.490Z,62.24
2023-01-15T09:15:00.311Z,62.18
2023-01-15T09:19:59.502Z,61.70
2023-01-15T09:25:05.581Z,61.77
2023-01-15T09:30:21.820Z,62.64
2023-01-15T09:35:23.839Z,62.16
2023-01-15T09:40:46.855Z,61.82
2023-01-15T09:46:07.909Z,62.07
2023-01-15T09:51:58.969Z,61.66
2023-01-15T09:57:01.672Z,62.61
2023-01-15T10:02:31.611Z,63.36
2023-01-15T10:07:51.341Z,63.76
2023-01-15T10:13:00.711Z,64.43
2023-01-15T10:18:02.783Z,65.58
2023-01-15T10:23:25.740Z,66.13
2023-01-15T10:29:03.658Z,66.80
2023-01-15T10:34:27.576Z,67.75
2023-01-15T10:39:51.321Z,68.19
2023-01-15T10:45:10.827Z,68.83
2023-01-15T10:50:20.350Z,69.45
2023-01-15T10:55:32.602Z,69.79
2023-01-15T11:00:34.941Z,69.77
2023-01-15T11:05:38.810Z,69.59
2023-01-15T11:10:41.498Z,70.26
2023-01-15T11:16:07.536Z,70.46
2023-01-15T11:21:31.969Z,70.58
2023-01-15T11:26:34.607Z,71.17
2023-01-15T11:31:38.591Z,71.46
2023-01-15T11:36:40.410Z,70.18
2023-01-15T11:42:00.626Z,69.25
2023-01-15T11:47:22.241Z,68.25
2023-01-15T11:52:26.241Z,67.15
2023-01-15T11:57:31.461Z,66.82
2023-01-15T12:02:48.337Z,66.30
2023-01-15T12:07:53.164Z,65.86
2023-01-15T12:13:09.422Z,65.83
2023-01-15T12:18:24.497Z,65.60
2023-01-15T12:23:32.317Z,65.63
2023-01-15T12:28:40.610Z,65.32
2023-01-15T12:33:57.996Z,65.33
2023-01-15T12:39:29.116Z,65.49
2023-01-15T12:44:58.159Z,65.17
2023-01-15T12:50:21.491Z,65.67
2023-01-15T12:55:29.152Z,65.69
2023-01-15T13:00:36.430Z,65.90
2023-01-15T13:05:50.809Z,66.17
2023-01-15T13:10:53.200Z,66.25
2023-01-15T13:15:57.912Z,67.25
2023-01-15T13:21:09.628Z,68.41
2023-01-15T13:26:23.489Z,69.05
2023-01-15T13:31:51.203Z,69.09
2023-01-15T13:36:57.937Z,69.64
2023-01-15T13:42:29.811Z,69.55
2023-01-15T13:47:34.816Z,69.13
2023-01-15T13:52:38.038Z,68.85
2023-01-15T13:57:41.912Z,69.10
2023-01-15T14:03:00.118Z,68.95
2023-01-15T14:08:14.352Z,69.41
2023-01-15T14:13:47.015Z,69.62
2023-01-15T14:19:22.798Z,69.76
2023-01-15T14:24:48.167Z,70.06
2023-01-15T14:30:20.809Z,70.05
2023-01-15T14:35:25.167Z,69.66
2023-01-15T14:40:33.181Z,69.34
2023-01-15T14:45:40.857Z,69.49
2023-01-15T14:50:44.071Z,68.96
2023-01-15T14:56:10.356Z,70.14
2023-01-15T15:01:21.172Z,71.15
2023-01-15T15:06:23.312Z,71.63
2023-01-15T15:11:57.353Z,72.76
2023-01-15T15:17:04.814Z,73.66
2023-01-15T15:22:13.420Z,74.10
2023-01-15T15:27:16.254Z,74.72
2023-01-15T15:32:24.518Z,75.10
2023-01-15T15:37:28.274Z,75.33
2023-01-15T15:42:56.214Z,76.02
2023-01-15T15:48:17.263Z,75.88
2023-01-15T15:53:18.947Z,75.84
2023-01-15T15:58:32.976Z,75.81
2023-01-15T16:03:34.800Z,75.47
2023-01-15T16:08:36.799Z,75.50
2023-01-15T16:13:42.902Z,75.73
2023-01-15T16:18:48.812Z,76.42
2023-01-15T16:24:03.049Z,76.91
2023-01-15T16:29:07.385Z,78.08
2023-01-15T16:34:19.597Z,79.05
2023-01-15T16:39:29.532Z,80.46
2023-01-15T16:44:52.626Z,81.24
2023-01-15T16:50:23.828Z,82.53
2023-01-15T16:55:34.577Z,83.26
2023-01-15T17:00:36.316Z,84.18
2023-01-15T17:05:38.255Z,85.07
2023-01-15T17:10:42.287Z,85.52
2023-01-15T17:15:44.213Z,85.73
2023-01-15T17:20:46.153Z,85.94
2023-01-15T17:25:48.141Z,86.15
2023-01-15T17:30:52.704Z,86.37
2023-01-15T17:35:56.532Z,86.61
2023-01-15T17:40:59.458Z,86.65
2023-01-15T17:46:01.468Z,86.65
2023-01-15T17:51:05.299Z,86.40
2023-01-15T17:56:26.223Z,86.13
2023-01-15T18:01:57.354Z,86.07
2023-01-15T18:07:01.742Z,86.06
2023-01-15T18:12:04.069Z,86.07
2023-01-15T18:17:06.039Z,86.15
2023-01-15T18:22:07.995Z,86.36
2023-01-15T18:27:10.385Z,86.20
2023-01-15T18:32:12.382Z,86.38
2023-01-15T18:37:14.073Z,86.37
2023-01-15T18:42:15.848Z,86.45
2023-01-15T18:47:17.897Z,86.23
2023-01-15T18:52:38.277Z,85.97
2023-01-15T18:57:39.975Z,85.95
2023-01-15T19:02:42.266Z,85.65
2023-01-15T19:07:44.848Z,85.49
2023-01-15T19:12:46.818Z,85.39
2023-01-15T19:18:07.358Z,85.21
2023-01-15T19:23:09.572Z,85.13
2023-01-15T19:28:17.893Z,85.03
2023-01-15T19:33:19.609Z,84.97
2023-01-15T19:38:21.282Z,84.95
2023-01-15T19:43:41.647Z,84.87
2023-01-15T19:49:02.439Z,84.67
2023-01-15T19:54:06.269Z,84.82
2023-01-15T19:59:08.232Z,84.72
2023-01-15T20:04:09.890Z,84.72
2023-01-15T20:09:11.579Z,84.77
2023-01-15T20:14:13.465Z,84.68
2023-01-15T20:19:15.382Z,84.76
2023-01-15T20:24:17.126Z,84.78
2023-01-15T20:29:18.990Z,84.97
2023-01-15T20:34:20.883Z,84.59
2023-01-15T20:39:23.188Z,84.70
2023-01-15T20:44:43.456Z,84.60
2023-01-15T20:49:46.781Z,84.49
2023-01-15T20:54:48.477Z,84.48
2023-01-15T20:59:50.189Z,84.52
2023-01-15T21:04:51.879Z,84.42
2023-01-15T21:09:53.846Z,84.59
2023-01-15T21:14:55.659Z,84.56
2023-01-15T21:19:57.350Z,84.54
2023-01-15T21:24:59.025Z,84.42
2023-01-15T21:30:00.715Z,84.36
2023-01-15T21:35:02.431Z,84.34
2023-01-15T21:40:04.784Z,84.52
2023-01-15T21:45:08.148Z,84.38
2023-01-15T21:50:10.568Z,84.39
2023-01-15T21:55:13.293Z,84.35
2023-01-15T22:00:17.254Z,84.36
2023-01-15T22:05:18.957Z,84.44
2023-01-15T22:10:20.776Z,84.43
2023-01-15T22:15:28.950Z,84.41
2023-01-15T22:20:30.798Z,84.42
2023-01-15T22:25:32.586Z,84.59
2023-01-15T22:30:37.680Z,84.75
2023-01-15T22:35:39.745Z,84.51
2023-01-15T22:40:41.455Z,84.47
2023-01-15T22:45:43.321Z,84.51
2023-01-15T22:50:45.019Z,84.64
2023-01-15T22:55:55.698Z,84.49
2023-01-15T23:00:57.821Z,84.41
2023-01-15T23:06:03.900Z,84.40
2023-01-15T23:11:10.906Z,84.14
2023-01-15T23:16:12.670Z,84.08
2023-01-15T23:21:20.482Z,84.02
2023-01-15T23:26:22.883Z,83.95
2023-01-15T23:31:33.962Z,83.54
2023-01-15T23:36:35.782Z,83.72
2023-01-15T23:41:56.111Z,83.69
2023-01-15T23:46:57.776Z,83.48
2023-01-15T23:51:59.842Z,83.78
2023-01-15T23:57:02.111Z,83.41
